createdAt,value
2018-12-23T00:01:58.151Z,6.90
2018-12-23T00:04:26.473Z,6.90
2018-12-23T00:06:54.925Z,6.90
2018-12-23T00:09:23.311Z,6.90
2018-12-23T00:11:51.666Z,6.90
2018-12-23T00:14:19.989Z,6.80
2018-12-23T00:16:48.383Z,6.80
2018-12-23T00:19:16.706Z,6.80
2018-12-23T00:21:45.066Z,6.80
2018-12-23T00:24:13.411Z,6.70
2018-12-23T00:26:41.767Z,6.70
2018-12-23T00:29:10.093Z,6.70
2018-12-23T00:31:38.458Z,6.70
2018-12-23T00:34:06.787Z,6.70
2018-12-23T00:36:35.142Z,6.60
2018-12-23T00:39:04.593Z,6.60
2018-12-23T00:41:32.969Z,6.60
2018-12-23T00:44:01.326Z,6.60
2018-12-23T00:46:29.664Z,6.60
2018-12-23T00:48:58.019Z,6.60
2018-12-23T00:51:26.356Z,6.60
2018-12-23T00:53:54.734Z,6.60
2018-12-23T00:56:23.138Z,6.50
2018-12-23T00:58:51.499Z,6.50
2018-12-23T01:01:19.831Z,6.50
2018-12-23T01:03:48.182Z,6.50
2018-12-23T01:06:16.518Z,6.50
2018-12-23T01:08:45.394Z,6.50
2018-12-23T01:11:13.713Z,6.50
2018-12-23T01:13:42.180Z,6.50
2018-12-23T01:16:10.510Z,6.50
2018-12-23T01:18:38.867Z,6.50
2018-12-23T01:21:07.198Z,6.50
2018-12-23T01:23:35.558Z,6.50
2018-12-23T01:26:03.886Z,6.50
2018-12-23T01:28:32.242Z,6.50
2018-12-23T01:31:00.566Z,6.50
2018-12-23T01:33:28.921Z,6.50
2018-12-23T01:35:57.254Z,6.50
2018-12-23T01:38:25.667Z,6.50
2018-12-23T01:40:54.061Z,6.50
2018-12-23T01:43:22.437Z,6.50
2018-12-23T01:45:50.838Z,6.50
2018-12-23T01:48:19.201Z,6.50
2018-12-23T01:50:47.530Z,6.50
2018-12-23T01:53:15.987Z,6.50
2018-12-23T01:55:44.420Z,6.50
2018-12-23T01:58:12.796Z,6.50
2018-12-23T02:00:41.126Z,6.50
2018-12-23T02:03:09.534Z,6.50
2018-12-23T02:05:45.842Z,6.40
2018-12-23T02:08:08.340Z,6.40
2018-12-23T02:10:36.674Z,6.40
2018-12-23T02:13:05.026Z,6.40
2018-12-23T02:15:33.390Z,6.40
2018-12-23T02:18:01.834Z,6.40
2018-12-23T02:20:30.168Z,6.30
2018-12-23T02:22:58.538Z,6.30
2018-12-23T02:25:26.871Z,6.30
2018-12-23T02:27:55.230Z,6.30
2018-12-23T02:30:23.556Z,6.30
2018-12-23T02:32:51.915Z,6.30
2018-12-23T02:35:20.286Z,6.30
2018-12-23T02:37:48.614Z,6.30
2018-12-23T02:40:16.971Z,6.30
2018-12-23T02:42:45.299Z,6.30
2018-12-23T02:45:13.652Z,6.30
2018-12-23T02:47:41.966Z,6.30
2018-12-23T02:50:10.419Z,6.30
2018-12-23T02:52:38.727Z,6.30
2018-12-23T02:55:07.182Z,6.30
2018-12-23T02:57:35.529Z,6.20
2018-12-23T03:00:04.483Z,6.20
2018-12-23T03:02:32.925Z,6.20
2018-12-23T03:05:01.306Z,6.20
2018-12-23T03:07:29.715Z,6.30
2018-12-23T03:09:58.070Z,6.30
2018-12-23T03:12:26.505Z,6.30
2018-12-23T03:14:54.851Z,6.20
2018-12-23T03:17:23.182Z,6.20
2018-12-23T03:19:51.526Z,6.20
2018-12-23T03:22:19.843Z,6.20
2018-12-23T03:24:48.182Z,6.20
2018-12-23T03:27:16.491Z,6.20
2018-12-23T03:29:44.923Z,6.20
2018-12-23T03:32:13.250Z,6.20
2018-12-23T03:34:41.598Z,6.10
2018-12-23T03:37:09.917Z,6.10
2018-12-23T03:39:38.337Z,6.10
2018-12-23T03:42:06.650Z,6.10
2018-12-23T03:44:34.998Z,6.10
2018-12-23T03:47:03.323Z,6.10
2018-12-23T03:49:31.682Z,6.20
2018-12-23T03:52:00.005Z,6.20
2018-12-23T03:54:28.353Z,6.20
2018-12-23T03:56:56.662Z,6.20
2018-12-23T03:59:25.000Z,6.20
2018-12-23T04:01:53.319Z,6.20
2018-12-23T04:04:21.668Z,6.20
2018-12-23T04:06:49.977Z,6.20
2018-12-23T04:09:18.313Z,6.20
2018-12-23T04:11:46.734Z,6.20
2018-12-23T04:14:15.082Z,6.20
2018-12-23T04:16:43.433Z,6.20
2018-12-23T04:19:11.777Z,6.20
2018-12-23T04:21:40.119Z,6.20
2018-12-23T04:24:08.474Z,6.20
2018-12-23T04:26:36.789Z,6.20
2018-12-23T04:29:05.393Z,6.20
2018-12-23T04:31:33.707Z,6.20
2018-12-23T04:34:02.062Z,6.20
2018-12-23T04:36:34.244Z,6.20
2018-12-23T04:39:00.731Z,6.20
2018-12-23T04:41:29.052Z,6.20
2018-12-23T04:43:57.406Z,6.20
2018-12-23T04:46:25.759Z,6.20
2018-12-23T04:48:54.114Z,6.20
2018-12-23T04:51:22.434Z,6.20
2018-12-23T04:53:50.779Z,6.20
2018-12-23T04:56:19.101Z,6.20
2018-12-23T04:58:47.458Z,6.20
2018-12-23T05:01:15.773Z,6.20
2018-12-23T05:03:44.135Z,6.20
2018-12-23T05:06:12.458Z,6.10
2018-12-23T05:08:40.808Z,6.10
2018-12-23T05:11:09.125Z,6.10
2018-12-23T05:13:37.506Z,6.10
2018-12-23T05:16:05.921Z,6.10
2018-12-23T05:18:34.254Z,6.10
2018-12-23T05:21:02.575Z,6.00
2018-12-23T05:23:30.913Z,6.00
2018-12-23T05:25:59.226Z,6.00
2018-12-23T05:28:27.578Z,6.00
2018-12-23T05:30:55.894Z,5.90
2018-12-23T05:33:24.248Z,5.90
2018-12-23T05:35:52.602Z,5.90
2018-12-23T05:38:20.959Z,5.90
2018-12-23T05:40:51.351Z,5.90
2018-12-23T05:43:19.725Z,5.90
2018-12-23T05:45:48.033Z,5.90
2018-12-23T05:48:16.388Z,5.80
2018-12-23T05:50:44.699Z,5.90
2018-12-23T05:53:13.051Z,5.80
2018-12-23T05:55:40.401Z,5.80
2018-12-23T05:58:08.755Z,5.80
2018-12-23T06:00:37.070Z,5.80
2018-12-23T06:03:05.442Z,5.80
2018-12-23T06:05:33.752Z,5.80
2018-12-23T06:08:02.110Z,5.80
2018-12-23T06:10:30.413Z,5.80
2018-12-23T06:12:58.774Z,5.80
2018-12-23T06:15:27.125Z,5.80
2018-12-23T06:17:55.478Z,5.80
2018-12-23T06:20:23.803Z,5.90
2018-12-23T06:22:52.144Z,5.90
2018-12-23T06:25:20.454Z,5.90
2018-12-23T06:27:48.766Z,5.90
2018-12-23T06:30:17.125Z,5.90
2018-12-23T06:32:45.434Z,5.90
2018-12-23T06:35:13.910Z,5.80
2018-12-23T06:37:42.245Z,5.80
2018-12-23T06:40:10.598Z,5.80
2018-12-23T06:42:38.910Z,5.80
2018-12-23T06:45:07.362Z,5.80
2018-12-23T06:47:35.674Z,5.80
2018-12-23T06:50:04.433Z,5.70
2018-12-23T06:52:32.743Z,5.70
2018-12-23T06:55:01.187Z,5.80
2018-12-23T06:57:29.498Z,5.70
2018-12-23T06:59:57.842Z,5.70
2018-12-23T07:02:26.153Z,5.70
2018-12-23T07:04:54.534Z,5.80
2018-12-23T07:07:22.857Z,5.80
2018-12-23T07:09:51.206Z,5.80
2018-12-23T07:12:19.563Z,5.80
2018-12-23T07:14:47.919Z,5.70
2018-12-23T07:17:16.268Z,5.80
2018-12-23T07:19:44.717Z,5.70
2018-12-23T07:22:13.037Z,5.70
2018-12-23T07:24:41.389Z,5.80
2018-12-23T07:27:09.708Z,5.70
2018-12-23T07:29:38.089Z,5.70
2018-12-23T07:32:06.398Z,5.70
2018-12-23T07:34:34.750Z,5.70
2018-12-23T07:37:03.060Z,5.70
2018-12-23T07:39:31.403Z,5.70
2018-12-23T07:41:59.742Z,5.70
2018-12-23T07:44:28.100Z,5.70
2018-12-23T07:46:56.423Z,5.70
2018-12-23T07:49:24.886Z,5.70
2018-12-23T07:51:53.957Z,5.70
2018-12-23T07:54:22.310Z,5.70
2018-12-23T07:56:50.629Z,5.70
2018-12-23T07:59:19.002Z,5.70
2018-12-23T08:01:47.338Z,5.70
2018-12-23T08:04:15.696Z,5.70
2018-12-23T08:06:44.026Z,5.70
2018-12-23T08:09:12.714Z,5.70
2018-12-23T08:11:41.030Z,5.70
2018-12-23T08:14:59.244Z,5.70
2018-12-23T08:17:27.653Z,5.70
2018-12-23T08:19:56.005Z,5.70
2018-12-23T08:22:24.331Z,5.70
2018-12-23T08:24:52.680Z,5.80
2018-12-23T08:27:21.011Z,5.80
2018-12-23T08:29:49.360Z,5.80
2018-12-23T08:32:17.679Z,5.80
2018-12-23T08:34:46.034Z,5.90
2018-12-23T08:37:14.358Z,5.90
2018-12-23T08:39:42.705Z,5.90
2018-12-23T08:42:11.022Z,5.90
2018-12-23T08:44:39.380Z,6.00
2018-12-23T08:47:07.718Z,6.00
2018-12-23T08:49:36.074Z,6.00
2018-12-23T08:52:04.701Z,6.00
2018-12-23T08:54:33.049Z,6.00
2018-12-23T08:57:01.366Z,6.00
2018-12-23T08:59:29.742Z,6.10
2018-12-23T09:01:58.075Z,6.10
2018-12-23T09:04:26.435Z,6.10
2018-12-23T09:06:54.758Z,6.20
2018-12-23T09:09:23.254Z,6.20
2018-12-23T09:11:51.599Z,6.20
2018-12-23T09:14:19.995Z,6.30
2018-12-23T09:16:48.355Z,6.30
2018-12-23T09:19:16.714Z,6.30
2018-12-23T09:21:45.030Z,6.40
2018-12-23T09:24:13.382Z,6.40
2018-12-23T09:26:41.714Z,6.50
2018-12-23T09:29:10.066Z,6.50
2018-12-23T09:31:38.378Z,6.60
2018-12-23T09:34:06.731Z,6.60
2018-12-23T09:36:35.037Z,6.60
2018-12-23T09:39:04.602Z,6.70
2018-12-23T09:41:32.926Z,6.70
2018-12-23T09:44:01.269Z,6.70
2018-12-23T09:46:29.584Z,6.80
2018-12-23T09:48:57.933Z,6.80
2018-12-23T09:51:26.293Z,6.80
2018-12-23T09:53:54.681Z,6.90
2018-12-23T09:56:23.027Z,6.90
2018-12-23T09:58:51.347Z,7.00
2018-12-23T10:01:19.730Z,7.00
2018-12-23T10:03:48.139Z,7.00
2018-12-23T10:06:16.823Z,7.00
2018-12-23T10:08:45.154Z,7.10
2018-12-23T10:11:13.497Z,7.20
2018-12-23T10:13:41.858Z,7.20
2018-12-23T10:16:10.218Z,7.30
2018-12-23T10:18:38.556Z,7.30
2018-12-23T10:21:07.670Z,7.40
2018-12-23T10:23:35.990Z,7.40
2018-12-23T10:26:04.372Z,7.50
2018-12-23T10:28:32.730Z,7.50
2018-12-23T10:31:01.078Z,7.50
2018-12-23T10:33:29.390Z,7.60
2018-12-23T10:35:57.742Z,7.60
2018-12-23T10:38:26.050Z,7.60
2018-12-23T10:40:54.393Z,7.60
2018-12-23T10:43:22.723Z,7.60
2018-12-23T10:45:51.105Z,7.60
2018-12-23T10:48:19.484Z,7.60
2018-12-23T10:50:47.836Z,7.70
2018-12-23T10:53:16.150Z,7.70
2018-12-23T10:55:44.502Z,7.70
2018-12-23T10:58:12.934Z,7.80
2018-12-23T11:00:41.293Z,7.80
2018-12-23T11:03:09.630Z,7.80
2018-12-23T11:05:37.994Z,7.90
2018-12-23T11:08:06.310Z,7.90
2018-12-23T11:10:34.674Z,7.90
2018-12-23T11:13:03.006Z,7.90
2018-12-23T11:15:31.355Z,8.00
2018-12-23T11:17:59.670Z,8.00
2018-12-23T11:20:28.030Z,8.00
2018-12-23T11:22:56.346Z,8.00
2018-12-23T11:25:24.698Z,8.00
2018-12-23T11:27:53.066Z,8.00
2018-12-23T11:30:21.410Z,8.10
2018-12-23T11:32:49.729Z,8.20
2018-12-23T11:35:18.113Z,8.20
2018-12-23T11:37:46.438Z,8.20
2018-12-23T11:40:14.814Z,8.20
2018-12-23T11:42:43.126Z,8.10
2018-12-23T11:45:11.521Z,8.10
2018-12-23T11:47:39.834Z,8.00
2018-12-23T11:50:08.213Z,8.00
2018-12-23T11:52:36.958Z,8.00
2018-12-23T11:55:05.998Z,7.90
2018-12-23T11:57:34.311Z,7.90
2018-12-23T12:00:02.870Z,7.90
2018-12-23T12:02:31.194Z,7.80
2018-12-23T12:04:59.534Z,7.80
2018-12-23T12:07:27.863Z,7.80
2018-12-23T12:09:56.214Z,7.80
2018-12-23T12:12:24.593Z,7.80
2018-12-23T12:14:52.958Z,7.80
2018-12-23T12:17:21.302Z,7.80
2018-12-23T12:19:49.620Z,7.80
2018-12-23T12:22:17.981Z,7.70
2018-12-23T12:24:46.379Z,7.80
2018-12-23T12:27:14.802Z,7.90
2018-12-23T12:29:43.122Z,7.90
2018-12-23T12:32:11.496Z,7.90
2018-12-23T12:34:39.814Z,7.90
2018-12-23T12:37:08.177Z,7.90
2018-12-23T12:39:36.495Z,7.80
2018-12-23T12:42:04.866Z,7.80
2018-12-23T12:44:33.227Z,7.80
2018-12-23T12:47:01.593Z,7.80
2018-12-23T12:49:29.918Z,7.80
2018-12-23T12:51:58.294Z,7.80
2018-12-23T12:54:26.608Z,7.70
2018-12-23T12:56:55.001Z,7.70
2018-12-23T12:59:23.327Z,7.70
2018-12-23T13:01:51.702Z,7.70
2018-12-23T13:04:20.017Z,7.60
2018-12-23T13:06:48.418Z,7.60
2018-12-23T13:09:16.748Z,7.60
2018-12-23T13:11:45.090Z,7.60
2018-12-23T13:14:13.414Z,7.60
2018-12-23T13:16:41.790Z,7.50
2018-12-23T13:19:10.134Z,7.50
2018-12-23T13:21:38.775Z,7.40
2018-12-23T13:24:07.098Z,7.40
2018-12-23T13:26:35.479Z,7.40
2018-12-23T13:29:03.798Z,7.40
2018-12-23T13:31:32.179Z,7.40
2018-12-23T13:34:00.492Z,7.30
2018-12-23T13:36:28.866Z,7.30
2018-12-23T13:38:57.200Z,7.30
2018-12-23T13:41:34.438Z,7.20
2018-12-23T13:44:13.926Z,7.20
2018-12-23T13:47:16.778Z,7.20
2018-12-23T13:49:56.485Z,7.20
2018-12-23T13:53:21.195Z,7.20
2018-12-23T13:58:06.739Z,7.20
2018-12-23T14:00:50.949Z,7.20
2018-12-23T14:03:29.019Z,7.10
2018-12-23T14:08:11.159Z,7.10
2018-12-23T14:10:49.954Z,7.00
2018-12-23T14:13:18.301Z,7.00
2018-12-23T14:15:46.697Z,6.90
2018-12-23T14:18:15.038Z,6.90
2018-12-23T14:20:43.445Z,6.90
2018-12-23T14:23:11.782Z,6.90
2018-12-23T14:25:40.378Z,6.80
2018-12-23T14:28:08.710Z,6.80
2018-12-23T14:30:37.119Z,6.80
2018-12-23T14:33:05.746Z,6.80
2018-12-23T14:35:34.138Z,6.80
2018-12-23T14:38:02.921Z,6.80
2018-12-23T14:40:31.291Z,6.80
2018-12-23T14:42:59.688Z,6.80
2018-12-23T14:45:28.127Z,6.70
2018-12-23T14:47:56.820Z,6.70
2018-12-23T14:50:25.231Z,6.70
2018-12-23T14:52:54.486Z,6.70
2018-12-23T14:55:22.950Z,6.70
2018-12-23T14:57:51.274Z,6.60
2018-12-23T15:00:19.977Z,6.60
2018-12-23T15:02:48.363Z,6.60
2018-12-23T15:05:17.219Z,6.60
2018-12-23T15:07:45.621Z,6.60
2018-12-23T15:10:14.023Z,6.60
2018-12-23T15:12:42.367Z,6.60
2018-12-23T15:15:10.994Z,6.60
2018-12-23T15:17:39.594Z,6.60
2018-12-23T15:20:08.039Z,6.60
2018-12-23T15:22:36.541Z,6.60
2018-12-23T15:25:05.076Z,6.60
2018-12-23T15:27:33.469Z,6.60
2018-12-23T15:30:01.801Z,6.60
2018-12-23T15:32:30.194Z,6.60
2018-12-23T15:34:58.519Z,6.60
2018-12-23T15:37:26.966Z,6.60
2018-12-23T15:39:55.282Z,6.60
2018-12-23T15:42:23.763Z,6.60
2018-12-23T15:44:52.083Z,6.60
2018-12-23T15:47:20.498Z,6.60
2018-12-23T15:49:48.845Z,6.60
2018-12-23T15:52:17.270Z,6.70
2018-12-23T15:54:46.312Z,6.60
2018-12-23T15:57:15.118Z,6.70
2018-12-23T15:59:43.447Z,6.70
2018-12-23T16:02:11.850Z,6.70
2018-12-23T16:04:40.199Z,6.70
2018-12-23T16:07:08.663Z,6.80
2018-12-23T16:09:36.990Z,6.80
2018-12-23T16:12:07.722Z,6.80
2018-12-23T16:14:36.070Z,6.80
2018-12-23T16:17:04.522Z,7.00
2018-12-23T16:19:32.839Z,7.00
2018-12-23T16:22:01.238Z,7.10
2018-12-23T16:24:29.561Z,7.10
2018-12-23T16:26:57.970Z,7.10
2018-12-23T16:29:26.304Z,7.20
2018-12-23T16:31:54.705Z,7.20
2018-12-23T16:34:23.048Z,7.20
2018-12-23T16:36:51.444Z,7.20
2018-12-23T16:39:19.774Z,7.20
2018-12-23T16:41:48.168Z,7.30
2018-12-23T16:44:16.475Z,7.30
2018-12-23T16:46:44.864Z,7.30
2018-12-23T16:49:13.195Z,7.30
2018-12-23T16:51:41.569Z,7.40
2018-12-23T16:54:09.898Z,7.40
2018-12-23T16:56:38.271Z,7.40
2018-12-23T16:59:06.585Z,7.40
2018-12-23T17:01:34.966Z,7.50
2018-12-23T17:04:03.299Z,7.50
2018-12-23T17:06:31.752Z,7.50
2018-12-23T17:09:00.092Z,7.60
2018-12-23T17:11:28.489Z,7.60
2018-12-23T17:13:56.854Z,7.60
2018-12-23T17:16:25.182Z,7.60
2018-12-23T17:18:53.594Z,7.70
2018-12-23T17:21:21.910Z,7.70
2018-12-23T17:23:50.297Z,7.70
2018-12-23T17:26:18.659Z,7.70
2018-12-23T17:28:47.065Z,7.70
2018-12-23T17:31:15.378Z,7.80
2018-12-23T17:33:43.774Z,7.80
2018-12-23T17:36:12.107Z,7.80
2018-12-23T17:38:40.490Z,7.90
2018-12-23T17:41:08.815Z,7.90
2018-12-23T17:43:37.242Z,8.00
2018-12-23T17:46:05.561Z,8.00
2018-12-23T17:48:33.942Z,8.10
2018-12-23T17:51:02.294Z,8.10
2018-12-23T17:53:30.663Z,8.20
2018-12-23T17:55:59.082Z,8.20
2018-12-23T17:58:27.464Z,8.30
2018-12-23T18:00:55.886Z,8.30
2018-12-23T18:03:24.247Z,8.40
2018-12-23T18:05:52.565Z,8.40
2018-12-23T18:08:20.930Z,8.40
2018-12-23T18:10:49.361Z,8.40
2018-12-23T18:13:17.764Z,8.40
2018-12-23T18:15:46.107Z,8.40
2018-12-23T18:18:14.506Z,8.50
2018-12-23T18:20:42.825Z,8.50
2018-12-23T18:23:11.231Z,8.50
2018-12-23T18:25:39.551Z,8.50
2018-12-23T18:28:07.927Z,8.50
2018-12-23T18:30:37.627Z,8.60
2018-12-23T18:33:06.366Z,8.50
2018-12-23T18:35:34.703Z,8.60
2018-12-23T18:38:03.097Z,8.60
2018-12-23T18:40:33.444Z,8.60
2018-12-23T18:43:01.874Z,8.60
2018-12-23T18:45:30.207Z,8.60
2018-12-23T18:47:58.717Z,8.70
2018-12-23T18:50:27.042Z,8.70
2018-12-23T18:52:55.418Z,8.70
2018-12-23T18:55:24.871Z,8.80
2018-12-23T18:57:53.253Z,8.80
2018-12-23T19:00:21.599Z,8.80
2018-12-23T19:02:54.465Z,8.80
2018-12-23T19:05:22.782Z,8.80
2018-12-23T19:07:54.176Z,8.80
2018-12-23T19:10:31.888Z,8.90
2018-12-23T19:13:47.322Z,8.90
2018-12-23T19:16:55.431Z,8.90
2018-12-23T19:19:38.722Z,9.00
2018-12-23T19:22:17.180Z,9.10
2018-12-23T19:26:00.695Z,9.10
2018-12-23T19:28:39.003Z,9.10
2018-12-23T19:32:21.014Z,9.10
2018-12-23T19:35:32.658Z,9.10
2018-12-23T19:38:58.766Z,9.10
2018-12-23T19:42:14.180Z,9.10
2018-12-23T19:48:29.707Z,9.10
2018-12-23T19:51:37.075Z,9.30
2018-12-23T19:57:44.315Z,9.30
2018-12-23T20:00:37.034Z,9.40
2018-12-23T20:03:44.887Z,9.30
2018-12-23T20:06:47.835Z,9.40
2018-12-23T20:09:55.439Z,9.40
2018-12-23T20:13:05.809Z,9.40
2018-12-23T20:16:13.572Z,9.40
2018-12-23T20:22:52.071Z,9.40
2018-12-23T20:25:44.179Z,9.50
2018-12-23T20:32:07.146Z,9.50
2018-12-23T20:35:14.514Z,9.60
2018-12-23T20:38:21.870Z,9.60
2018-12-23T20:41:29.228Z,9.60
2018-12-23T20:44:36.797Z,9.60
2018-12-23T20:47:44.483Z,9.70
2018-12-23T20:50:52.471Z,9.60
2018-12-23T20:53:59.771Z,9.70
2018-12-23T20:57:07.123Z,9.70
2018-12-23T21:00:14.691Z,9.70
2018-12-23T21:06:52.927Z,9.70
2018-12-23T21:10:00.375Z,9.80
2018-12-23T21:13:09.151Z,9.80
2018-12-23T21:19:04.863Z,9.80
2018-12-23T21:22:00.911Z,9.90
2018-12-23T21:25:11.240Z,9.80
2018-12-23T21:28:09.479Z,9.80
2018-12-23T21:31:13.667Z,9.80
2018-12-23T21:34:21.267Z,9.80
2018-12-23T21:40:45.129Z,9.90
2018-12-23T21:43:52.497Z,9.90
2018-12-23T21:46:47.827Z,9.80
2018-12-23T21:49:55.355Z,9.90
2018-12-23T21:53:02.923Z,9.80
2018-12-23T21:56:10.536Z,9.80
2018-12-23T21:59:17.830Z,9.90
2018-12-23T22:01:58.636Z,9.80
2018-12-23T22:05:06.823Z,9.80
2018-12-23T22:08:14.120Z,9.80
2018-12-23T22:11:21.809Z,9.80
2018-12-23T22:14:10.293Z,9.80
2018-12-23T22:16:59.077Z,9.80
2018-12-23T22:19:47.303Z,9.80
2018-12-23T22:22:16.967Z,9.80
2018-12-23T22:25:05.227Z,9.80
2018-12-23T22:27:34.335Z,9.80
2018-12-23T22:30:22.665Z,9.90
2018-12-23T22:33:10.875Z,9.90
2018-12-23T22:35:59.442Z,9.90
2018-12-23T22:41:41.316Z,9.90
2018-12-23T22:45:02.340Z,9.90
2018-12-23T22:47:51.000Z,9.90
2018-12-23T22:50:39.514Z,9.90
2018-12-23T22:53:28.007Z,9.90
2018-12-23T22:56:16.848Z,9.90
2018-12-23T22:59:05.062Z,9.90
2018-12-23T23:01:45.560Z,9.90
2018-12-23T23:04:14.944Z,9.90
2018-12-23T23:07:03.187Z,10.00
2018-12-23T23:09:51.665Z,9.90
2018-12-23T23:12:39.915Z,9.90
2018-12-23T23:15:09.103Z,9.90
2018-12-23T23:17:57.339Z,9.90
2018-12-23T23:20:45.831Z,9.90
2018-12-23T23:23:34.079Z,9.90
2018-12-23T23:26:57.409Z,9.90
2018-12-23T23:29:45.903Z,10.00
2018-12-23T23:32:34.435Z,10.00
2018-12-23T23:35:40.487Z,9.90
2018-12-23T23:38:09.647Z,10.00
2018-12-23T23:40:58.195Z,10.00
2018-12-23T23:43:46.788Z,10.00
2018-12-23T23:49:42.583Z,10.00
2018-12-23T23:52:30.839Z,10.00
2018-12-23T23:55:19.372Z,10.00
2018-12-23T23:58:07.695Z,10.00
